Flight Track Log - Related Links

Times and Time Zones

All times are in EST time to prevent confusion due to time zone crossing. See the FLG4262 flight status page for this flight to view local times or setup timezone preferences in your user account.


Time Position Orientation Groundspeed Altitude Reporting Facility
EST Latitude Longitude Course Direction KTS MPH feet Rate Location/Type
Thu 05:33:56 PM 42.1394 -75.9978 222° Southwest 205 236 5,600  Level New York Center
Thu 05:34:57 PM 42.1628 -76.0781 291° West 162 186 7,600 2,350 Climbing New York Center
Thu 05:35:56 PM 42.1883 -76.1611 293° West 196 226 10,300 2,532 Climbing New York Center
Thu 05:37:50 PM 42.2403 -76.3175 294° West 270 311 14,900 2,407 Climbing Cleveland Center
Thu 05:38:00 PM 42.2290 -76.6765 289° West  Level Estimated
Thu 05:38:53 PM 42.2733 -76.4217 293° West 273 314 17,400  Level Cleveland Center
Thu 05:39:55 PM 42.3028 -76.5189 292° West 279 321 18,900 1,113 Climbing Cleveland Center
Thu 05:40:57 PM 42.3356 -76.6286 292° West 311 358 19,700 1,065 Climbing Cleveland Center
Thu 05:41:59 PM 42.3808 -76.7714 293° West 343 395 21,100 1,306 Climbing Cleveland Center
Thu 05:43:01 PM 42.4164 -76.8925 292° West 347 399 22,400 1,113 Climbing Cleveland Center
Thu 05:44:03 PM 42.4536 -77.0147 292° West 350 403 23,400 919 Climbing Cleveland Center
Thu 05:45:05 PM 42.4911 -77.1397 292° West 358 412 24,300 871 Climbing Cleveland Center
Thu 05:46:07 PM 42.5292 -77.2661 292° West 362 417 25,200 823 Climbing Cleveland Center
Thu 05:47:09 PM 42.5678 -77.3964 292° West 370 426 26,000 823 Climbing Cleveland Center
Thu 05:48:11 PM 42.6119 -77.5442 292° West 379 436 26,900 774 Climbing Cleveland Center
Thu 05:49:13 PM 42.6242 -77.6803 277° West 375 432 27,600 528 Climbing Cleveland Center
Thu 05:50:16 PM 42.6319 -77.8481 274° West 376 433 28,000 192 Climbing Cleveland Center
Thu 05:51:18 PM 42.6375 -77.9911 273° West 380 437 28,000  Level Cleveland Center
Thu 05:52:20 PM 42.6425 -78.1342 273° West 380 437 28,000  Level Cleveland Center
Thu 05:53:22 PM 42.6469 -78.2794 272° West 385 443 28,000  Level Cleveland Center
Thu 05:54:24 PM 42.6528 -78.4264 273° West 388 447 28,000  Level Cleveland Center
Thu 05:55:26 PM 42.6572 -78.5736 272° West 394 453 28,000  Level Cleveland Center
Thu 05:56:28 PM 42.6631 -78.7489 273° West 389 448 28,000  Level Cleveland Center
Thu 05:57:30 PM 42.6681 -78.8972 273° West 393 452 28,000  Level Cleveland Center
Thu 05:58:32 PM 42.6711 -79.0458 272° West 396 456 28,000  Level Cleveland Center
Thu 05:59:34 PM 42.6747 -79.1931 272° West 393 452 28,000  Level Cleveland Center
Thu 06:00:36 PM 42.6786 -79.3419 272° West 394 453 28,000  Level Cleveland Center
Thu 06:01:38 PM 42.6828 -79.4900 272° West 395 455 28,000  Level Cleveland Center
Thu 06:02:41 PM 42.6864 -79.6700 272° West 397 457 28,000  Level Cleveland Center
Thu 06:03:43 PM 42.6892 -79.8181 272° West 395 455 28,000  Level Cleveland Center
Thu 06:04:45 PM 42.6925 -79.9694 272° West 400 460 28,000  Level Cleveland Center
Thu 06:05:47 PM 42.6936 -80.1217 271° West 402 463 28,000  Level Cleveland Center
Thu 06:06:49 PM 42.6975 -80.2764 272° West 404 465 28,000  Level Cleveland Center
Thu 06:07:51 PM 42.7000 -80.4303 271° West 404 465 28,000  Level Cleveland Center
Thu 06:08:53 PM 42.7022 -80.6131 271° West 410 472 28,000 -242 Level Cleveland Center
Thu 06:09:55 PM 42.7053 -80.7681 272° West 410 472 27,500 -968 Descending Cleveland Center
Thu 06:10:57 PM 42.7042 -80.9200 269° West 404 465 26,000 -1,452 Descending Cleveland Center
Thu 06:11:59 PM 42.6869 -81.0608 261° West 379 436 24,500 -968 Descending Cleveland Center
Thu 06:13:01 PM 42.6711 -81.1981 261° West 368 423 24,000 -242 Descending Cleveland Center
Thu 06:14:03 PM 42.6550 -81.3350 261° West 365 420 24,000  Level Cleveland Center
Thu 06:15:06 PM 42.6361 -81.4925 261° West 364 419 24,000 -528 Level Cleveland Center
Thu 06:16:08 PM 42.6203 -81.6306 261° West 366 421 22,900 -1,500 Descending Cleveland Center
Thu 06:17:10 PM 42.6047 -81.7583 261° West 348 400 20,900 -1,887 Descending Cleveland Center
Thu 06:18:12 PM 42.5892 -81.8875 261° West 337 388 19,000 -1,790 Descending Cleveland Center
Thu 06:19:14 PM 42.5736 -82.0106 260° West 333 383 17,200 -1,790 Descending Cleveland Center
Thu 06:20:16 PM 42.5583 -82.1361 261° West 338 389 15,300 -1,944 Descending Cleveland Center
Thu 06:20:25 PM 42.5550 -82.1647 261° West 339 390 14,900 -1,839 Descending Cleveland Center
Thu 06:21:18 PM 42.5419 -82.2664 260° West 346 398 13,400 -1,853 Descending Cleveland Center
Thu 06:21:33 PM 42.5361 -82.3208 262° West 352 405 12,800 -1,258 Descending Cleveland Center
Thu 06:22:20 PM 42.5269 -82.3967 261° West 351 404 12,100 -787 Descending Cleveland Center
Thu 06:22:34 PM 42.5211 -82.4464 261° West 338 389 12,000 -97 Descending Cleveland Center
Thu 06:23:22 PM 42.5097 -82.5250 259° West 283 326 12,000  Level Cleveland Center
Thu 06:23:35 PM 42.5056 -82.5492 257° West 244 281 12,000 -640 Level Cleveland Center
Thu 06:24:37 PM 42.4686 -82.6292 238° Southwest 258 297 11,200 -1,027 Descending Cleveland Center
Thu 06:25:26 PM 42.4322 -82.6819 227° Southwest 255 293 10,100 -1,522 Descending Cleveland Center
Thu 06:25:44 PM 42.4189 -82.7075 235° Southwest 248 285 9,500 -1,645 Descending Cleveland Center
Thu 06:26:28 PM 42.4047 -82.7617 251° West 245 282 8,400 -1,855 Descending Cleveland Center
Thu 06:26:39 PM 42.4028 -82.7872 264° West 236 272 7,800 -1,905 Descending Cleveland Center
Thu 06:27:31 PM 42.3975 -82.8492 263° West 236 272 6,400 -1,612 Descending Cleveland Center
Thu 06:27:46 PM 42.3933 -82.8850 261° West 231 266 6,000 -387 Descending Cleveland Center
Thu 06:28:33 PM 42.3878 -82.9317 261° West 229 264 6,000  Level Cleveland Center
Thu 06:28:48 PM 42.3853 -82.9686 265° West 216 249 6,000  Level Cleveland Center
Thu 06:29:35 PM 42.3861 -83.0203 271° West 199 229 6,000  Level Cleveland Center
Thu 06:29:43 PM 42.3889 -83.0311 289° West 170 196 6,000 -677 Level Cleveland Center
Thu 06:30:37 PM 42.4008 -83.0811 288° West 176 203 5,300 -896 Descending Cleveland Center
Thu 06:30:50 PM 42.4067 -83.1014 291° West 185 213 5,000 -290 Descending Cleveland Center
Thu 06:31:39 PM 42.4100 -83.1478 276° West 185 213 5,000  Level Cleveland Center
Thu 06:31:57 PM 42.3972 -83.1708 233° Southwest 164 189 5,000 -194 Level Cleveland Center
Thu 06:32:41 PM 42.3819 -83.1939 228° Southwest 160 184 4,800 -480 Descending Cleveland Center
Thu 06:32:47 PM 42.3778 -83.2050 243° Southwest 131 151 4,600 -1,075 Descending Cleveland Center
Thu 06:33:48 PM 42.3483 -83.2347 217° Southwest 141 162 3,600 -787 Descending Cleveland Center
Thu 06:34:49 PM 42.3169 -83.2614 212° Southwest 132 152 3,000 -655 Descending Cleveland Center
Thu 06:35:47 PM 42.2872 -83.2836 209° Southwest 133 153 2,300 -677 Descending Cleveland Center
Thu 06:35:51 PM 42.2858 -83.2853 222° Southwest 117 135 2,300 -581 Level Cleveland Center
Thu 06:36:49 PM 42.2614 -83.3014 206° Southwest 119 137 1,700 -590 Descending Cleveland Center
Thu 06:36:52 PM 42.2592 -83.3042 223° Southwest 107 123 1,700 -581 Level Cleveland Center
Thu 06:37:51 PM 42.2350 -83.3203 206° Southwest 110 127 1,100 -689 Descending Cleveland Center
Thu 06:37:53 PM 42.2322 -83.3258 236° Southwest 116 133 1,000 -97 Descending Cleveland Center
Thu 06:38:53 PM 42.2075 -83.3414 205° Southwest 111 128 1,000  Level Cleveland Center
Thu 06:40:00 PM 42.2000 -83.3500 213° Southwest  Level FlightAware Approximate

Login

Don't have an account? Register now (free) for customized features, flight alerts, and more!